Welcome, Guest. Please login or register.
Did you miss your activation email?

News: The latest PSX update (version 10.42 from 16 August 2018) is available at: http://aerowinx.com/board/index.php?topic=4191.0

Author Topic: RELEASED: Open beta of PSXseeconTraffic  (Read 34993 times)

kiek

  • Join date: Jul 2014
  • Location: Delft, The Netherlands
  • Posts: 590
    • http://www.lekseecon.nl/psxseecon.html
    • Email
Re: RELEASED: Open beta of PSXseeconTraffic
« Reply #40 on: Thu, 21 Jan 2016 08:02 »
Bonjour Francois,

Thank you for your feedback. From the log I conclude that everything is ok.

I think that PSXseeconTraffic did not "hang at Corsica", but that there simply were no aircraft within range and fullfilling your height and livery filter settings. The message "Traffic detected and buffering ... "was presumably generated upon out of range traffic. This is wrong, I'll change that in the next version.

Regards,
Nico

bublegom

  • Join date: Aug 2014
  • Posts: 72
    • Email
Re: RELEASED: Open beta of PSXseeconTraffic
« Reply #41 on: Thu, 21 Jan 2016 09:33 »
Hi Nico,

Thank you for your support

Regards

François

kiek

  • Join date: Jul 2014
  • Location: Delft, The Netherlands
  • Posts: 590
    • http://www.lekseecon.nl/psxseecon.html
    • Email
Re: RELEASED: Open beta of PSXseeconTraffic
« Reply #42 on: Sat, 30 Jan 2016 17:50 »
Version 1.0.8 is up, here are the release notes.

Most important change: much smoother movements of aircraft!

Nico

Britjet

  • Join date: Aug 2014
  • Location: Camberley, UK
  • Posts: 1195
Re: RELEASED: Open beta of PSXseeconTraffic
« Reply #43 on: Sat, 30 Jan 2016 22:12 »
Thanks Nico,
A very nice update!
Peter

kiek

  • Join date: Jul 2014
  • Location: Delft, The Netherlands
  • Posts: 590
    • http://www.lekseecon.nl/psxseecon.html
    • Email
Re: RELEASED: Open beta of PSXseeconTraffic
« Reply #44 on: Sun, 31 Jan 2016 07:59 »
Hi Peter,
Absolutely, my pleasure.

I've just put up version 1.0.9, with a small optimization that might be of interest to you.
Here are the Release Notes

Regards,
Nico
P.S I'm glad that BA still has a lot of 747's, it's a very nice sight at Heathrow
« Last edit: Sun, 31 Jan 2016 10:58 by kiek »

bublegom

  • Join date: Aug 2014
  • Posts: 72
    • Email
Re: RELEASED: Open beta of PSXseeconTraffic
« Reply #45 on: Sun, 31 Jan 2016 21:35 »
Hi Nico,

With version 1.08 I have noticed an issue. When my plane is parked on ground, PSXseenconTraffic sometimes stops with the reason : "Warning: Repositioning occurred, PSXseeconTraffic will exit ..." which is not true
Here is my logfile :

PSXseeconTraffic version 1.0.8
compiled at: Jan 30 2016 18:24:50

4015 liveries read from AI_liveries.txt
Connecting to Scenery Generator ...
Connecting to PSX ...
PSX connected
Connected to Lockheed Martin® Prepar3D® v2
QNH=1018 KATL 311752Z 17009KT 10SM FEW026 BKN032 17/10 A3006 RMK AO2 SLP177 T01670100 10167 20078 58019
Starting SimConnect session and synchronising ...
Waiting for Scenery Generator ...
Connecting to RealTraffic ForeFlight stream ...
RealTraffic ForeFlight socket connected (though not sure ForeFlight is sending traffic)
Traffic received
Traffic received, buffering now ...
QNH=1018 KATL 311812Z 20008KT 10SM SCT028 BKN036 17/10 A3005 RMK AO2 T01670100
QNH=1017 KATL 311852Z 16007KT 10SM SCT030 BKN040 17/11 A3003 RMK AO2 SLP167 T01720106
QNH=1017 KCVC 311915Z AUTO 18004KT 10SM OVC031 18/12 A3002 RMK AO2
QNH=1018 KWDR 311915Z AUTO 00000KT 10SM BKN032 OVC040 18/08 A3006 RMK AO1
QNH=1017 K19A 311915Z AUTO 24011G15KT 10SM BKN035 17/10 A3003 RMK AO2
QNH=1017 KTOC 311915Z AUTO 23010G15KT 10SM BKN038 18/11 A3002 RMK AO2 T01780109
QNH=1017 KAND 311856Z AUTO 25012KT 10SM OVC037 18/09 A3004 RMK AO2 SLP169 T01780089
QNH=1017 KGYH 311847Z 23017G23KT 10SM BKN034 16/08 A3004
QNH=1017 KGSP 311853Z 21018G26KT 10SM BKN034 17/08 A3002 RMK AO2 PK WND 23027/1816 SLP162 T01670078
QNH=1016 KSPA 311935Z AUTO 26014G23KT 10SM SCT039 17/06 A3001 RMK AO2
QNH=1016 KEHO 311915Z AUTO 23018G23KT 10SM CLR 17/07 A3000 RMK AO2 T01700070
QNH=1015 KEHO 311955Z AUTO 22014G21KT 10SM CLR 17/07 A2998 RMK AO2 T01700071
QNH=1015 KIPJ 311955Z AUTO 21011G16KT 10SM CLR 18/06 A2997 RMK AO2 T01840060
QNH=1017 KSVH 311635Z AUTO 20010G14KT 10SM CLR 14/06 A3004 RMK AO2 T01440061
QNH=1018 KRUQ 311635Z AUTO 22014G19KT 10SM CLR 16/07 A3005 RMK AO2 T01570067
QNH=1018 KEXX 311635Z AUTO 22007G20KT 190V260 10SM CLR 16/07 A3006 RMK AO2 T01620066
QNH=1014 KINT 311954Z 19011G18KT 150V220 10SM CLR 19/04 A2994 RMK AO2 SLP137 T01890039
QNH=1014 KGSO 311954Z 20016G25KT 10SM BKN250 19/03 A2994 RMK AO2 SLP134 T01890033
QNH=1014 KBUY 311954Z AUTO 20012G19KT 10SM CLR 20/04 A2995 RMK AO2 SLP139 T02000039
QNH=1013 KDAN 311953Z AUTO 20011G18KT 10SM CLR 20/04 A2992 RMK AO2 SLP126 T02000039
QNH=1017 KW78 311635Z AUTO 22008KT 10SM CLR 17/04 A3004 RMK AO1 T01650038
QNH=1017 KCXE 311635Z AUTO 24004KT 10SM CLR 16/03 A3004 RMK AO1 T01550030
QNH=1013 KW31 311955Z AUTO 20011G17KT 10SM CLR 18/04 A2992 RMK AO1 T01820040
QNH=1017 KW81 311635Z AUTO 21007KT 10SM CLR 15/04 A3002 RMK AO1 T01540044
QNH=1017 KBKT 311635Z AUTO 21016G23KT 10SM CLR 15/05 A3003 RMK AO1 T01510045
QNH=1013 KFCI 311955Z AUTO 20009G15KT 10SM CLR A2992 RMK AO1
QNH=1013 KRIC 311954Z 20014KT 10SM BKN300 18/05 A2991 RMK AO2 SLP132 T01780050 $
QNH=1013 KW96 311955Z AUTO 22006G16KT 10SM CLR 19/05 A2991 RMK AO1 T01920045
QNH=1013 KXSA 311955Z AUTO 20011KT 10SM CLR 18/04 A2992 RMK AO2 T01810036
QNH=1013 KXSA 312035Z AUTO 20008KT 160V220 10SM CLR 18/04 A2990 RMK AO2 T01820037
QNH=1013 KNHK 311952Z 19007KT 10SM SCT250 17/03 A2990 RMK AO2 SLP125 T01670033 $
QNH=1013 KCGE 311945Z AUTO 17009KT 10SM CLR 14/03 A2990 RMK AO1
QNH=1013 KGED 311954Z AUTO 23010KT 10SM CLR 17/03 A2991 RMK AO2 SLP129 T01720028
QNH=1013 KWWD 312035Z AUTO 16006KT 10SM CLR 13/03 A2991 RMK AO1
QNH=1012 KACY 311954Z 22008KT 10SM CLR 16/01 A2989 RMK AO2 SLP121 T01610011
QNH=1012 KMJX 312035Z AUTO 23007KT 10SM CLR 16/M01 A2987 RMK AO1
QNH=1012 KBLM 312035Z AUTO 14004KT 10SM CLR 13/01 A2987 RMK AO1
QNH=1012 KBLM 312055Z AUTO 12005KT 10SM CLR 12/01 A2987 RMK AO1 57017
QNH=1012 KJFK 312051Z 16007KT 10SM BKN250 09/02 A2989 RMK AO2 SLP121 T00890017 56015 $
AAL2179 parked
Warning: Repositioning occurred, PSXseeconTraffic will exit ...
Disconnect from RealTraffic Stream
RealTraffic ForeFlight stream disconnected
Scenery Generator disconnected
force Disconnect PSX ...

************ liveries use summary ************************

49 aircrafts skipped because there was no liveries with exact AIRLINE+TYPE available

23 not found AI liveries:
AAL A319
AAL A332
AAY A320
ASH E170
ASQ CRJ2
ASQ CRJ7
ASQ CRJ9
ASQ E145
AWI CRJ2
AZA A332
BER A332
CCA B748
DAL B739
DAL MD88
ENY E145
FLG CRJ9
GLF GLF4
GLF GLF5
JBU A321
JIA CRJ2
SWR A333
TAY B77L
VIR A333
**********************************************************

PSXseeconTraffic exits
MAIN_WINDOW_X=0
MAIN_WINDOW_Y=0

Regards

François

kiek

  • Join date: Jul 2014
  • Location: Delft, The Netherlands
  • Posts: 590
    • http://www.lekseecon.nl/psxseecon.html
    • Email
Re: RELEASED: Open beta of PSXseeconTraffic
« Reply #46 on: Mon, 1 Feb 2016 08:19 »
When my plane is parked on ground, PSXseenconTraffic sometimes stops with the reason : "Warning: Repositioning occurred, PSXseeconTraffic will exit ..." which is not true
Well, that's strange, because I get that info from PSX, via Hardy's Qs122 variable StartPiBaHeAlVsTasYw .
It reads "if first digit is not 0, a repositioning has occured. "
?
If this happens more often, please let me know, then I might consider to make this test optional.

Nico

bublegom

  • Join date: Aug 2014
  • Posts: 72
    • Email
Re: RELEASED: Open beta of PSXseeconTraffic
« Reply #47 on: Wed, 3 Feb 2016 13:39 »
Hi Nico,

You can easily reproduce the issue. If you start for exemple from the pre-define situation : 01 Departure 001- Sidney - Los Angeles.situ and you switch off the beacon lwr, PSXseeconTraffic stops.

Regards

François

kiek

  • Join date: Jul 2014
  • Location: Delft, The Netherlands
  • Posts: 590
    • http://www.lekseecon.nl/psxseecon.html
    • Email
Re: RELEASED: Open beta of PSXseeconTraffic
« Reply #48 on: Thu, 4 Feb 2016 08:51 »
Francois,

That's caused by VisualPSX; it has some re-positioning "tricks" in which the beacon plays a role.
If you run PSXseeconTraffic without VisualPSX, you will notice that it remains rock stable...

This unlucky interaction is inconvenient, so I think I will remove my test on repositioning. Drawback being that PSXseeconTraffic might run into an exception situation (indicated at the bottom with a red message). You have to exit PSXseeconTraffic then manually (but only in real repositioning situation).

Nico


Hardy Heinlin

  • Moderator
  • Join date: May 2009
  • Posts: 9306
    • Aerowinx
    • Email
Re: RELEASED: Open beta of PSXseeconTraffic
« Reply #49 on: Thu, 4 Feb 2016 08:57 »
Hi Nico,

how about checking the distance that VisualPSX generates when jumping around the airport? I guess it's never greater than an airport area, say, 7 nm. So, if it's less than 7 nm, ignore the repositioning?


Regards,

|-|ardy

kiek

  • Join date: Jul 2014
  • Location: Delft, The Netherlands
  • Posts: 590
    • http://www.lekseecon.nl/psxseecon.html
    • Email
Re: RELEASED: Open beta of PSXseeconTraffic
« Reply #50 on: Thu, 4 Feb 2016 16:31 »
Hi Hardy,
Sounds like a good idea.
Thx.
Nico

Garry Richards

  • Join date: May 2009
  • Location: Australia
  • Posts: 463
    • http://flightsim.garryric.com
Re: RELEASED: Open beta of PSXseeconTraffic
« Reply #51 on: Fri, 5 Feb 2016 06:31 »
Hi Nico,

Turning the beacon off (provided that other conditions are met) places VisualPSX into lock mode. It then freezes the position of the FSX/P3D aircraft and moves PSX to that same position. The user may then also select a departure runway and PSX will move to that runway position and then back to the locked position. PSX will then move again so that the correct runway offset will be in place when it taxies to the threshold.

You might be able to detect the spurious relocation by comparing the positions of PSX and the FSX/P3D user aircraft. If PSX has relocated but the FSX/P3D aircraft has not moved then you could ignore the relocation.

Hope this helps. Cheers,
Garry

Website: flightsim.garryric.com

kiek

  • Join date: Jul 2014
  • Location: Delft, The Netherlands
  • Posts: 590
    • http://www.lekseecon.nl/psxseecon.html
    • Email
Re: RELEASED: Open beta of PSXseeconTraffic
« Reply #52 on: Fri, 5 Feb 2016 16:06 »
Hi Garry,

Thx for this idea, I should indeed do that.
However, the implementation is rather complicated while the user aircraft in the Scenery generator is not my concern, and I'd like to keep it that way.
Therefore,  for the time being I have removed my re-positioning detection. Without it, people can (implcitly) lock and unlock VisualPSX without "disturbing" PSXseeconTraffic, so the aircaft around you will not disappear.

It is only when one re-positions the PSX aircraft via the Instructor panel, that PSXseecon traffic runs into an exception mode, just like loading a new situ, something PSXseeconTraffic is able to detect via the load1 message.

Cheers,
Nico

kiek

  • Join date: Jul 2014
  • Location: Delft, The Netherlands
  • Posts: 590
    • http://www.lekseecon.nl/psxseecon.html
    • Email
Re: RELEASED: Open beta of PSXseeconTraffic
« Reply #53 on: Fri, 5 Feb 2016 16:08 »
Version 1.0.10 is up, here are the release notes.

Nico

kiek

  • Join date: Jul 2014
  • Location: Delft, The Netherlands
  • Posts: 590
    • http://www.lekseecon.nl/psxseecon.html
    • Email
Re: RELEASED: Open beta of PSXseeconTraffic
« Reply #54 on: Tue, 9 Feb 2016 15:47 »
Version 1.0.11 is up, here are the release notes.

Nico
« Last edit: Tue, 16 Feb 2016 18:23 by kiek »

kiek

  • Join date: Jul 2014
  • Location: Delft, The Netherlands
  • Posts: 590
    • http://www.lekseecon.nl/psxseecon.html
    • Email
Re: RELEASED: Open beta of PSXseeconTraffic
« Reply #55 on: Mon, 15 Feb 2016 19:53 »
It's getting better and better ... ;-)

Version 1.1.0 is up, here are the release notes.


Nico

Frans Spruit

  • Join date: May 2009
  • Location: EHAM
  • Posts: 77
Re: RELEASED: Open beta of PSXseeconTraffic
« Reply #56 on: Mon, 15 Feb 2016 22:14 »
Hi Nico,

It's getting much better and much better,
Thank you, dank je wel

Frans Spruit

kiek

  • Join date: Jul 2014
  • Location: Delft, The Netherlands
  • Posts: 590
    • http://www.lekseecon.nl/psxseecon.html
    • Email
Re: RELEASED: Open beta of PSXseeconTraffic
« Reply #57 on: Tue, 16 Feb 2016 16:05 »
dank je wel
Graag gedaan, geniet ervan!

Version 1.1.1 is up.
The anti-slow down measures during take-off were not correct for some runways, resulting in aircraft sliding off the runway. Had to remove it.

Nico

kiek

  • Join date: Jul 2014
  • Location: Delft, The Netherlands
  • Posts: 590
    • http://www.lekseecon.nl/psxseecon.html
    • Email
Re: RELEASED: Open beta of PSXseeconTraffic
« Reply #58 on: Wed, 17 Feb 2016 13:21 »
Hi,
Version 1.1.2 is up, here are the release notes.

Bug fixed in the algorithm that injects aircraft in PSX. Up till now you could not have the Above-Below ranges -2700 ft to 7000ft and +2700 ft to -7000ft.  Now all aircaft within +/-7000 ft in height, and being in front of or not more than 5 nm behind your 744, are injected, with a maximum of 7. If there are more than 7, the closest ones in lat/lon distance have preference.

Nico

kiek

  • Join date: Jul 2014
  • Location: Delft, The Netherlands
  • Posts: 590
    • http://www.lekseecon.nl/psxseecon.html
    • Email
Re: RELEASED: Open beta of PSXseeconTraffic
« Reply #59 on: Fri, 19 Feb 2016 11:19 »
Hi,
Version 1.1.3 is up, here are the release notes.

Nico